KCCA/CCA METAR and TAF weather

Enter ICAO airport designator
Station Type Date Time Source
KCCA METAR 2019/12/13 14:15 UTC NOAA

KCCA 131415Z AUTO 00000KT 10SM OVC060 02/00 A3000 RMK AO2


Station Type Date Time Source
KCCA Decoded METAR 2019/12/13 14:15 UTC NOAA

Station name not available
Dec 13, 2019 - 09:15 AM EST / 2019.12.13 1415 UTC
Wind: Calm:0
Visibility: 10 mile(s):0
Sky conditions: overcast
Temperature: 35 F (2 C)
Dew Point: 32 F (0 C)
Relative Humidity: 86%
Pressure (altimeter): 30 in. Hg (1015 hPa)
ob: KCCA 131415Z AUTO 00000KT 10SM OVC060 02/00 A3000 RMK AO2
cycle: 14

Station Type Date Time Source
KCCA TAF UTC NOAA

Error!

Example: see airport list